createdAt,value
2018-10-16T00:00:17.221Z,92.55
2018-10-16T00:01:17.145Z,93.32
2018-10-16T00:02:17.068Z,91.03
2018-10-16T00:03:17.133Z,92.18
2018-10-16T00:04:16.915Z,90.84
2018-10-16T00:05:16.839Z,90.84
2018-10-16T00:06:16.812Z,90.17
2018-10-16T00:07:16.686Z,89.70
2018-10-16T00:08:16.608Z,90.36
2018-10-16T00:09:16.531Z,90.36
2018-10-16T00:10:16.455Z,88.18
2018-10-16T00:11:16.381Z,89.98
2018-10-16T00:12:16.347Z,89.32
2018-10-16T00:13:16.224Z,90.65
2018-10-16T00:14:16.147Z,90.84
2018-10-16T00:15:16.071Z,91.70
2018-10-16T00:16:15.993Z,90.98
2018-10-16T00:17:15.917Z,91.94
2018-10-16T00:18:15.841Z,91.79
2018-10-16T00:19:15.764Z,93.32
2018-10-16T00:20:15.688Z,92.18
2018-10-16T00:21:15.613Z,92.36
2018-10-16T00:22:15.533Z,92.36
2018-10-16T00:23:15.458Z,89.79
2018-10-16T00:24:15.429Z,90.08
2018-10-16T00:25:15.304Z,90.46
2018-10-16T00:26:15.227Z,91.79
2018-10-16T00:27:15.152Z,92.36
2018-10-16T00:28:15.072Z,91.89
2018-10-16T00:29:14.994Z,91.60
2018-10-16T00:30:14.919Z,91.70
2018-10-16T00:31:14.846Z,91.03
2018-10-16T00:32:14.767Z,89.51
2018-10-16T00:33:14.691Z,91.79
2018-10-16T00:34:14.614Z,90.46
2018-10-16T00:35:14.536Z,90.75
2018-10-16T00:36:14.459Z,91.70
2018-10-16T00:37:14.382Z,91.79
2018-10-16T00:38:14.305Z,93.51
2018-10-16T00:39:14.229Z,92.46
2018-10-16T00:40:14.152Z,91.51
2018-10-16T00:41:14.075Z,90.84
2018-10-16T00:42:14.048Z,90.17
2018-10-16T00:43:13.923Z,88.93
2018-10-16T00:44:13.844Z,88.08
2018-10-16T00:45:13.768Z,89.70
2018-10-16T00:46:13.694Z,89.98
2018-10-16T00:47:13.615Z,90.36
2018-10-16T00:48:13.537Z,91.70
2018-10-16T00:49:13.460Z,91.03
2018-10-16T00:50:13.385Z,90.94
2018-10-16T00:51:13.309Z,89.61
2018-10-16T00:52:13.231Z,90.65
2018-10-16T00:53:13.156Z,88.93
2018-10-16T00:54:13.177Z,89.75
2018-10-16T00:55:13.001Z,90.60
2018-10-16T00:56:12.924Z,92.13
2018-10-16T00:57:12.847Z,94.13
2018-10-16T00:58:12.771Z,94.32
2018-10-16T00:59:12.694Z,93.27
2018-10-16T01:00:12.718Z,93.55
2018-10-16T01:01:12.544Z,93.32
2018-10-16T01:02:12.464Z,92.46
2018-10-16T01:03:12.387Z,91.79
2018-10-16T01:04:12.311Z,92.08
2018-10-16T01:05:12.233Z,90.84
2018-10-16T01:06:12.157Z,90.46
2018-10-16T01:07:12.080Z,90.84
2018-10-16T01:08:12.002Z,90.27
2018-10-16T01:09:11.926Z,89.61
2018-10-16T01:10:11.853Z,89.89
2018-10-16T01:11:11.775Z,90.27
2018-10-16T01:12:11.697Z,90.27
2018-10-16T01:13:11.651Z,89.61
2018-10-16T01:14:11.543Z,88.37
2018-10-16T01:15:11.466Z,89.98
2018-10-16T01:16:11.407Z,90.98
2018-10-16T01:17:11.314Z,91.17
2018-10-16T01:18:11.488Z,92.89
2018-10-16T01:19:11.161Z,91.36
2018-10-16T01:20:11.083Z,93.46
2018-10-16T01:21:11.008Z,93.08
2018-10-16T01:22:10.934Z,93.41
2018-10-16T01:23:10.855Z,92.74
2018-10-16T01:24:10.827Z,92.84
2018-10-16T01:25:10.701Z,91.60
2018-10-16T01:26:10.624Z,90.75
2018-10-16T01:27:10.548Z,90.84
2018-10-16T01:28:10.470Z,90.75
2018-10-16T01:29:10.394Z,91.60
2018-10-16T01:30:10.318Z,92.36
2018-10-16T01:31:10.240Z,90.94
2018-10-16T01:32:10.163Z,91.03
2018-10-16T01:33:10.090Z,90.84
2018-10-16T01:34:10.013Z,89.03
2018-10-16T01:35:09.940Z,89.98
2018-10-16T01:36:09.908Z,89.79
2018-10-16T01:37:09.782Z,90.46
2018-10-16T01:38:09.726Z,91.03
2018-10-16T01:39:09.629Z,88.46
2018-10-16T01:40:09.555Z,91.79
2018-10-16T01:41:09.478Z,89.79
2018-10-16T01:42:09.399Z,92.65
2018-10-16T01:43:09.328Z,93.32
2018-10-16T01:44:09.245Z,91.84
2018-10-16T01:45:09.168Z,90.94
2018-10-16T01:46:09.094Z,90.13
2018-10-16T01:47:09.063Z,89.84
2018-10-16T01:48:08.938Z,88.89
2018-10-16T01:49:08.863Z,89.03
2018-10-16T01:50:08.785Z,90.84
2018-10-16T01:51:08.708Z,91.79
2018-10-16T01:52:08.631Z,91.99
2018-10-16T01:53:08.555Z,91.70
2018-10-16T01:54:08.527Z,90.75
2018-10-16T01:55:08.403Z,90.56
2018-10-16T01:56:08.325Z,90.65
2018-10-16T01:57:08.246Z,89.98
2018-10-16T01:58:08.170Z,90.84
2018-10-16T01:59:08.094Z,89.79
2018-10-16T02:00:08.016Z,90.65
2018-10-16T02:01:07.940Z,93.32
2018-10-16T02:02:07.864Z,94.84
2018-10-16T02:03:07.786Z,94.46
2018-10-16T02:04:07.710Z,93.03
2018-10-16T02:05:07.634Z,92.08
2018-10-16T02:06:07.657Z,93.79
2018-10-16T02:07:07.485Z,92.36
2018-10-16T02:08:07.407Z,91.70
2018-10-16T02:09:07.328Z,90.46
2018-10-16T02:10:07.256Z,90.65
2018-10-16T02:11:07.425Z,91.13
2018-10-16T02:12:07.097Z,90.27
2018-10-16T02:13:07.021Z,90.75
2018-10-16T02:14:06.945Z,89.70
2018-10-16T02:15:06.869Z,89.03
2018-10-16T02:16:06.791Z,90.17
2018-10-16T02:17:06.715Z,90.94
2018-10-16T02:18:06.639Z,91.99
2018-10-16T02:19:06.562Z,92.18
2018-10-16T02:20:06.484Z,92.55
2018-10-16T02:21:06.408Z,91.89
2018-10-16T02:22:06.332Z,91.03
2018-10-16T02:23:06.260Z,89.56
2018-10-16T02:24:06.179Z,88.23
2018-10-16T02:25:06.100Z,89.47
2018-10-16T02:26:06.025Z,89.75
2018-10-16T02:27:05.948Z,92.13
2018-10-16T02:28:05.872Z,93.18
2018-10-16T02:29:05.794Z,92.89
2018-10-16T02:30:05.719Z,91.94
2018-10-16T02:31:05.641Z,91.37
2018-10-16T02:32:05.564Z,90.61
2018-10-16T02:33:05.485Z,89.65
2018-10-16T02:34:05.414Z,88.18
2018-10-16T02:35:05.333Z,86.99
2018-10-16T02:36:05.354Z,88.04
2018-10-16T02:37:05.179Z,87.99
2018-10-16T02:38:05.101Z,84.95
2018-10-16T02:39:05.034Z,84.42
2018-10-16T02:40:04.954Z,85.08
2018-10-16T02:41:04.870Z,86.04
2018-10-16T02:42:05.047Z,86.13
2018-10-16T02:43:04.716Z,84.33
2018-10-16T02:44:04.640Z,85.66
2018-10-16T02:45:04.562Z,87.85
2018-10-16T02:46:04.484Z,90.42
2018-10-16T02:47:04.409Z,89.47
2018-10-16T02:48:04.387Z,88.60
2018-10-16T02:49:04.254Z,89.37
2018-10-16T02:50:04.180Z,89.47
2018-10-16T02:51:04.101Z,88.89
2018-10-16T02:52:04.022Z,87.32
2018-10-16T02:53:03.946Z,87.32
2018-10-16T02:54:03.867Z,86.85
2018-10-16T02:55:03.791Z,87.32
2018-10-16T02:56:03.714Z,87.23
2018-10-16T02:57:03.637Z,86.80
2018-10-16T02:58:03.558Z,86.99
2018-10-16T02:59:03.483Z,86.76
2018-10-16T03:00:03.405Z,86.99
2018-10-16T03:01:03.328Z,87.56
2018-10-16T03:02:03.250Z,87.04
2018-10-16T03:03:03.173Z,86.57
2018-10-16T03:04:03.193Z,86.09
2018-10-16T03:05:03.018Z,86.47
2018-10-16T03:06:02.943Z,86.94
2018-10-16T03:07:02.864Z,85.71
2018-10-16T03:08:02.786Z,84.47
2018-10-16T03:09:02.709Z,84.85
2018-10-16T03:10:02.631Z,83.62
2018-10-16T03:11:02.556Z,84.47
2018-10-16T03:12:02.476Z,84.95
2018-10-16T03:13:02.402Z,84.38
2018-10-16T03:14:02.572Z,84.85
2018-10-16T03:15:02.244Z,87.13
2018-10-16T03:16:02.168Z,88.18
2018-10-16T03:17:02.089Z,88.66
2018-10-16T03:18:02.014Z,87.71
2018-10-16T03:19:01.938Z,87.13
2018-10-16T03:20:01.856Z,86.52
2018-10-16T03:21:01.780Z,85.95
2018-10-16T03:22:01.702Z,82.28
2018-10-16T03:23:01.623Z,84.66
2018-10-16T03:24:01.548Z,85.47
2018-10-16T03:25:01.519Z,86.24
2018-10-16T03:26:01.392Z,86.05
2018-10-16T03:27:01.316Z,85.76
2018-10-16T03:28:01.236Z,85.47
2018-10-16T03:29:01.158Z,84.24
2018-10-16T03:30:01.082Z,84.43
2018-10-16T03:31:01.004Z,84.72
2018-10-16T03:32:00.925Z,85.47
2018-10-16T03:33:00.847Z,85.00
2018-10-16T03:34:00.770Z,85.57
2018-10-16T03:35:00.693Z,84.52
2018-10-16T03:36:00.664Z,85.19
2018-10-16T03:37:00.579Z,85.00
2018-10-16T03:38:03.079Z,83.86
2018-10-16T03:39:00.388Z,83.39
2018-10-16T03:40:00.303Z,84.14
2018-10-16T03:41:00.223Z,85.00
2018-10-16T03:42:00.145Z,84.72
2018-10-16T03:43:00.069Z,84.81
2018-10-16T03:43:59.990Z,85.10
2018-10-16T03:44:59.912Z,82.91
2018-10-16T03:45:59.834Z,81.01
2018-10-16T03:46:59.756Z,81.77
2018-10-16T03:47:59.677Z,82.34
2018-10-16T03:48:59.600Z,82.91
2018-10-16T03:49:59.522Z,82.34
2018-10-16T03:50:59.446Z,81.67
2018-10-16T03:51:59.365Z,81.01
2018-10-16T03:52:59.289Z,81.38
2018-10-16T03:53:59.213Z,79.68
2018-10-16T03:54:59.132Z,80.19
2018-10-16T03:55:59.053Z,81.38
2018-10-16T03:56:58.975Z,82.57
2018-10-16T03:57:58.897Z,82.34
2018-10-16T03:58:58.820Z,82.57
2018-10-16T03:59:58.741Z,83.04
2018-10-16T04:00:58.664Z,82.86
2018-10-16T04:01:58.588Z,82.95
2018-10-16T04:02:58.507Z,84.43
2018-10-16T04:03:58.430Z,85.47
2018-10-16T04:04:58.352Z,81.86
2018-10-16T04:05:58.275Z,83.39
2018-10-16T04:06:58.205Z,83.39
2018-10-16T04:07:58.121Z,83.67
2018-10-16T04:08:58.040Z,83.48
2018-10-16T04:09:57.962Z,83.39
2018-10-16T04:10:57.885Z,82.91
2018-10-16T04:11:57.906Z,83.00
2018-10-16T04:12:57.728Z,82.86
2018-10-16T04:13:57.723Z,83.48
2018-10-16T04:14:57.574Z,83.62
2018-10-16T04:18:53.332Z,83.19
2018-10-16T04:20:50.742Z,82.81
2018-10-16T04:22:50.666Z,81.77
2018-10-16T04:23:50.507Z,81.29
2018-10-16T04:24:50.429Z,81.10
2018-10-16T04:25:50.352Z,81.01
2018-10-16T04:26:50.277Z,80.44
2018-10-16T04:27:50.192Z,80.72
2018-10-16T04:28:50.113Z,83.00
2018-10-16T04:29:50.036Z,83.19
2018-10-16T04:30:49.955Z,81.77
2018-10-16T04:31:49.878Z,81.10
2018-10-16T04:32:49.827Z,82.34
2018-10-16T04:33:49.722Z,83.00
2018-10-16T04:34:49.645Z,83.48
2018-10-16T04:35:49.564Z,84.62
2018-10-16T04:36:49.514Z,83.39
2018-10-16T04:37:49.434Z,81.86
2018-10-16T04:38:49.329Z,81.67
2018-10-16T04:39:49.281Z,81.29
2018-10-16T04:40:49.202Z,81.29
2018-10-16T04:41:49.132Z,81.10
2018-10-16T04:42:49.044Z,82.43
2018-10-16T04:43:48.997Z,81.10
2018-10-16T04:44:48.859Z,82.05
2018-10-16T04:45:49.031Z,81.96
2018-10-16T04:46:48.702Z,82.91
2018-10-16T04:47:48.626Z,82.24
2018-10-16T04:48:48.546Z,81.77
2018-10-16T04:49:48.467Z,82.43
2018-10-16T04:50:48.389Z,80.15
2018-10-16T04:51:48.310Z,79.39
2018-10-16T04:52:48.232Z,79.58
2018-10-16T04:56:13.791Z,80.34
2018-10-16T04:57:13.720Z,80.44
2018-10-16T05:00:23.624Z,79.43
2018-10-16T05:01:23.545Z,79.62
2018-10-16T05:02:23.464Z,80.10
2018-10-16T05:08:32.113Z,84.47
2018-10-16T05:09:32.035Z,85.90
2018-10-16T05:10:31.955Z,85.52
2018-10-16T05:11:31.877Z,85.99
2018-10-16T05:12:31.800Z,86.09
2018-10-16T05:13:31.721Z,85.99
2018-10-16T05:14:31.642Z,86.76
2018-10-16T05:15:31.563Z,86.38
2018-10-16T05:16:31.487Z,84.95
2018-10-16T05:17:31.408Z,84.66
2018-10-16T05:18:31.329Z,84.00
2018-10-16T05:19:31.252Z,82.81
2018-10-16T05:20:31.175Z,82.67
2018-10-16T05:21:31.094Z,81.96
2018-10-16T05:22:31.017Z,81.14
2018-10-16T05:23:30.943Z,83.71
2018-10-16T05:24:30.861Z,83.19
2018-10-16T05:25:30.810Z,81.96
2018-10-16T05:26:30.705Z,82.15
2018-10-16T05:27:33.451Z,83.67
2018-10-16T05:29:18.290Z,83.19
2018-10-16T05:30:17.958Z,82.81
2018-10-16T05:31:18.053Z,82.91
2018-10-16T05:32:17.800Z,82.43
2018-10-16T05:33:17.722Z,82.62
2018-10-16T05:34:17.645Z,83.10
2018-10-16T05:35:17.567Z,83.58
2018-10-16T05:36:17.491Z,83.29
2018-10-16T05:37:17.410Z,83.19
2018-10-16T05:38:17.332Z,83.39
2018-10-16T05:39:17.326Z,83.00
2018-10-16T05:40:17.177Z,83.67
2018-10-16T05:41:17.098Z,83.10
2018-10-16T05:42:17.021Z,82.81
2018-10-16T05:43:16.941Z,83.10
2018-10-16T05:44:16.864Z,83.29
2018-10-16T05:45:16.786Z,82.81
2018-10-16T05:46:16.708Z,82.34
2018-10-16T05:47:16.630Z,84.52
2018-10-16T05:48:16.552Z,85.57
2018-10-16T05:49:16.475Z,85.19
2018-10-16T05:50:16.396Z,85.76
2018-10-16T05:51:16.318Z,85.57
2018-10-16T05:52:16.244Z,85.57
2018-10-16T05:53:16.162Z,83.58
2018-10-16T05:54:16.158Z,83.19
2018-10-16T05:55:16.008Z,83.39
2018-10-16T05:56:15.926Z,83.00
2018-10-16T05:57:15.850Z,83.10
2018-10-16T05:58:15.771Z,83.19
2018-10-16T05:59:15.693Z,82.53
2018-10-16T06:00:15.616Z,83.67
2018-10-16T06:01:15.543Z,85.00
2018-10-16T06:02:15.463Z,84.24
2018-10-16T06:03:15.381Z,84.43
2018-10-16T06:04:15.304Z,83.00
2018-10-16T06:05:15.226Z,82.15
2018-10-16T06:06:15.149Z,82.53
2018-10-16T06:07:15.069Z,83.10
2018-10-16T06:08:14.992Z,81.29
2018-10-16T06:09:14.913Z,81.38
2018-10-16T06:10:14.936Z,81.48
2018-10-16T06:11:14.756Z,81.01
2018-10-16T06:12:14.711Z,79.96
2018-10-16T06:13:14.601Z,80.05
2018-10-16T06:14:14.523Z,80.15
2018-10-16T06:15:14.444Z,83.00
2018-10-16T06:16:14.469Z,84.43
2018-10-16T06:17:14.287Z,82.81
2018-10-16T06:18:14.216Z,82.05
2018-10-16T06:19:14.132Z,81.86
2018-10-16T06:20:14.054Z,82.24
2018-10-16T06:21:13.976Z,82.05
2018-10-16T06:22:13.902Z,82.53
2018-10-16T06:23:13.821Z,83.00
2018-10-16T06:24:13.855Z,83.48
2018-10-16T06:25:13.664Z,84.14
2018-10-16T06:26:13.593Z,85.00
2018-10-16T06:27:13.512Z,85.47
2018-10-16T06:28:13.428Z,84.52
2018-10-16T06:29:13.351Z,82.81
2018-10-16T06:30:13.328Z,83.29
2018-10-16T06:31:13.199Z,82.15
2018-10-16T06:32:13.118Z,81.01
2018-10-16T06:33:13.062Z,79.86
2018-10-16T06:35:12.883Z,78.72
2018-10-16T06:36:12.804Z,79.01
2018-10-16T06:37:12.726Z,79.01
2018-10-16T06:38:12.851Z,78.91
2018-10-16T06:39:12.570Z,78.25
2018-10-16T06:40:12.492Z,79.39
2018-10-16T06:41:12.589Z,79.86
2018-10-16T06:42:12.337Z,79.77
2018-10-16T06:43:12.257Z,80.53
2018-10-16T06:44:12.180Z,81.01
2018-10-16T06:45:12.101Z,79.96
2018-10-16T06:46:12.024Z,80.34
2018-10-16T06:47:11.961Z,80.15
2018-10-16T06:48:12.100Z,79.96
2018-10-16T06:49:11.791Z,81.77
2018-10-16T06:50:11.715Z,81.67
2018-10-16T06:51:11.632Z,81.48
2018-10-16T06:52:11.561Z,82.24
2018-10-16T06:53:11.542Z,82.48
2018-10-16T06:54:11.407Z,83.39
2018-10-16T06:55:11.382Z,83.90
2018-10-16T06:56:11.244Z,83.33
2018-10-16T06:57:11.167Z,82.71
2018-10-16T06:58:11.089Z,82.71
2018-10-16T06:59:11.010Z,82.91
2018-10-16T07:00:11.011Z,82.43
2018-10-16T07:01:10.856Z,81.38
2018-10-16T07:02:10.777Z,80.76
2018-10-16T07:03:10.698Z,80.05
2018-10-16T07:04:10.624Z,79.52
2018-10-16T07:05:10.544Z,79.52
2018-10-16T07:06:10.467Z,79.24
2018-10-16T07:07:10.538Z,79.62
2018-10-16T07:08:10.311Z,79.91
2018-10-16T07:09:10.232Z,80.00
2018-10-16T07:10:10.156Z,80.19
2018-10-16T07:11:10.076Z,80.38
2018-10-16T07:12:09.998Z,80.29
2018-10-16T07:13:09.925Z,80.38
2018-10-16T07:14:09.844Z,80.47
2018-10-16T07:15:09.870Z,80.38
2018-10-16T07:16:09.689Z,81.05
2018-10-16T07:17:09.613Z,81.33
2018-10-16T07:18:09.534Z,82.09
2018-10-16T07:19:09.458Z,81.90
2018-10-16T07:20:09.382Z,82.19
2018-10-16T07:21:09.367Z,82.32
2018-10-16T07:22:09.224Z,81.95
2018-10-16T07:23:09.211Z,82.14
2018-10-16T07:24:09.069Z,83.94
2018-10-16T07:25:08.992Z,85.56
2018-10-16T07:26:08.915Z,85.89
2018-10-16T07:27:08.837Z,87.70
2018-10-16T07:28:08.760Z,88.65
2018-10-16T07:29:08.685Z,89.22
2018-10-16T07:30:08.648Z,89.13
2018-10-16T07:31:08.558Z,88.18
2018-10-16T07:32:08.483Z,87.70
2018-10-16T07:33:08.376Z,87.03
2018-10-16T07:34:08.299Z,86.04
2018-10-16T07:35:08.225Z,85.80
2018-10-16T07:36:08.146Z,85.51
2018-10-16T07:37:08.068Z,85.41
2018-10-16T07:38:08.092Z,85.80
2018-10-16T07:39:07.915Z,86.46
2018-10-16T07:40:07.837Z,86.08
2018-10-16T07:41:07.761Z,86.65
2018-10-16T07:42:07.683Z,87.13
2018-10-16T07:43:07.607Z,87.60
2018-10-16T07:44:07.531Z,87.70
2018-10-16T07:45:07.455Z,88.12
2018-10-16T07:46:07.382Z,87.65
2018-10-16T07:47:07.299Z,87.55
2018-10-16T07:48:07.224Z,87.55
2018-10-16T07:49:07.147Z,87.36
2018-10-16T07:50:07.071Z,87.84
2018-10-16T07:51:06.994Z,89.17
2018-10-16T07:52:06.923Z,89.69
2018-10-16T07:53:06.843Z,89.79
2018-10-16T07:54:06.765Z,89.79
2018-10-16T07:55:06.689Z,89.89
2018-10-16T07:56:06.616Z,89.69
2018-10-16T07:57:06.611Z,90.36
2018-10-16T07:58:06.461Z,89.79
2018-10-16T07:59:06.390Z,90.93
2018-10-16T08:00:06.309Z,92.17
2018-10-16T08:01:06.234Z,92.32
2018-10-16T08:02:06.163Z,92.98
2018-10-16T08:03:06.082Z,94.60
2018-10-16T08:04:06.005Z,95.17
2018-10-16T08:05:05.935Z,94.41
2018-10-16T08:06:05.856Z,92.60
2018-10-16T08:07:05.779Z,96.03
2018-10-16T08:08:05.704Z,95.79
2018-10-16T08:09:05.629Z,93.98
2018-10-16T08:10:05.553Z,95.03
2018-10-16T08:11:05.495Z,93.98
2018-10-16T08:12:05.404Z,93.41
2018-10-16T08:13:05.328Z,94.93
2018-10-16T08:14:05.258Z,95.98
2018-10-16T08:15:05.180Z,94.31
2018-10-16T08:16:05.105Z,94.70
2018-10-16T08:17:05.047Z,97.37
2018-10-16T08:18:04.954Z,96.32
2018-10-16T08:19:04.877Z,95.17
2018-10-16T08:20:04.804Z,95.75
2018-10-16T08:21:04.729Z,94.12
2018-10-16T08:22:04.656Z,94.41
2018-10-16T08:23:04.580Z,95.84
2018-10-16T08:24:04.504Z,98.42
2018-10-16T08:25:04.430Z,98.28
2018-10-16T08:26:04.359Z,98.28
2018-10-16T08:27:04.284Z,98.66
2018-10-16T08:28:04.207Z,99.04
2018-10-16T08:29:04.132Z,97.52
2018-10-16T08:30:04.128Z,96.37
2018-10-16T08:31:03.985Z,97.18
2018-10-16T08:32:03.909Z,97.85
2018-10-16T08:33:03.840Z,99.19
2018-10-16T08:34:03.870Z,99.28
2018-10-16T08:35:03.718Z,99.66
2018-10-16T08:36:03.976Z,99.66
2018-10-16T08:37:03.605Z,99.85
2018-10-16T08:38:03.496Z,99.90
2018-10-16T08:39:03.392Z,99.99
2018-10-16T08:40:03.321Z,99.99
2018-10-16T08:41:03.245Z,99.99
2018-10-16T08:42:03.299Z,99.99
2018-10-16T08:43:03.097Z,99.99
2018-10-16T08:44:03.023Z,99.99
2018-10-16T08:45:03.152Z,99.99
2018-10-16T08:46:02.878Z,99.99
2018-10-16T08:47:02.811Z,99.99
2018-10-16T08:48:02.730Z,99.99
2018-10-16T08:49:02.656Z,99.99
2018-10-16T08:50:02.584Z,99.99
2018-10-16T08:51:02.514Z,99.99
2018-10-16T08:52:02.436Z,99.99
2018-10-16T08:53:02.372Z,99.99
2018-10-16T08:54:02.291Z,99.99
2018-10-16T08:55:02.264Z,99.99
2018-10-16T08:56:02.143Z,99.77
2018-10-16T08:57:02.072Z,99.77
2018-10-16T08:58:01.998Z,99.58
2018-10-16T08:59:01.929Z,99.87
2018-10-16T09:00:01.852Z,99.99
2018-10-16T09:01:01.778Z,99.10
2018-10-16T09:02:01.705Z,99.29
2018-10-16T09:03:01.633Z,98.86
2018-10-16T09:04:01.562Z,98.47
2018-10-16T09:05:01.486Z,98.10
2018-10-16T09:06:01.414Z,98.28
2018-10-16T09:07:01.340Z,97.33
2018-10-16T09:08:01.267Z,96.94
2018-10-16T09:09:01.194Z,95.60
2018-10-16T09:10:01.122Z,94.93
2018-10-16T09:11:01.048Z,94.40
2018-10-16T09:12:00.975Z,93.73
2018-10-16T09:13:00.925Z,93.63
2018-10-16T09:14:00.916Z,93.44
2018-10-16T09:15:00.759Z,93.26
2018-10-16T09:16:00.685Z,93.44
2018-10-16T09:17:00.613Z,92.68
2018-10-16T09:18:00.540Z,91.91
2018-10-16T09:19:00.466Z,91.05
2018-10-16T09:20:00.395Z,90.67
2018-10-16T09:21:00.321Z,90.28
2018-10-16T09:22:00.250Z,89.18
2018-10-16T09:23:00.176Z,89.65
2018-10-16T09:24:00.111Z,88.22
2018-10-16T09:25:00.100Z,88.41
2018-10-16T09:25:59.960Z,87.35
2018-10-16T09:26:59.889Z,86.58
2018-10-16T09:27:59.814Z,86.97
2018-10-16T09:28:59.743Z,88.02
2018-10-16T09:29:59.670Z,87.68
2018-10-16T09:30:59.619Z,88.07
2018-10-16T09:31:59.528Z,88.07
2018-10-16T09:32:59.452Z,86.34
2018-10-16T09:33:59.384Z,85.96
2018-10-16T09:34:59.409Z,87.11
2018-10-16T09:35:59.243Z,88.35
2018-10-16T09:36:59.165Z,88.93
2018-10-16T09:37:59.135Z,89.26
2018-10-16T09:38:59.020Z,88.65
2018-10-16T09:39:58.998Z,88.40
2018-10-16T09:40:58.877Z,88.69
2018-10-16T09:41:58.807Z,88.49
2018-10-16T09:42:58.734Z,89.07
2018-10-16T09:43:58.659Z,88.11
2018-10-16T09:44:58.589Z,89.17
2018-10-16T09:45:58.516Z,89.75
2018-10-16T09:46:58.443Z,89.79
2018-10-16T09:47:58.704Z,89.50
2018-10-16T09:48:58.300Z,88.35
2018-10-16T09:49:58.228Z,89.36
2018-10-16T09:50:58.206Z,89.22
2018-10-16T09:51:58.084Z,88.64
2018-10-16T09:52:58.013Z,88.73
2018-10-16T09:53:57.941Z,88.54
2018-10-16T09:54:57.869Z,89.60
2018-10-16T09:55:57.797Z,89.79
2018-10-16T09:56:57.726Z,89.22
2018-10-16T09:57:57.682Z,87.96
2018-10-16T09:58:57.586Z,89.50
2018-10-16T10:00:57.546Z,90.84
2018-10-16T10:01:57.393Z,90.56
2018-10-16T10:02:57.598Z,90.75
2018-10-16T10:03:57.556Z,91.33
2018-10-16T10:04:57.359Z,90.66
2018-10-16T10:05:57.233Z,89.83
2018-10-16T10:06:57.023Z,89.16
2018-10-16T10:07:56.939Z,89.26
2018-10-16T10:08:56.867Z,89.45
2018-10-16T10:09:56.795Z,88.49
2018-10-16T10:10:56.782Z,85.99
2018-10-16T10:11:56.650Z,85.80
2018-10-16T10:12:56.579Z,85.03
2018-10-16T10:13:56.509Z,83.20
2018-10-16T10:14:56.439Z,83.20
2018-10-16T10:15:56.365Z,83.06
2018-10-16T10:16:56.297Z,82.38
2018-10-16T10:17:56.222Z,83.15
2018-10-16T10:18:56.150Z,81.90
2018-10-16T10:19:56.080Z,80.07
2018-10-16T10:20:56.007Z,79.40
2018-10-16T10:21:55.939Z,79.79
2018-10-16T10:22:55.863Z,80.84
2018-10-16T10:23:55.795Z,79.79
2018-10-16T10:24:55.721Z,77.61
2018-10-16T10:25:55.650Z,80.11
2018-10-16T10:26:55.581Z,78.09
2018-10-16T10:27:55.506Z,78.00
2018-10-16T10:28:55.435Z,76.84
2018-10-16T10:29:55.365Z,77.23
2018-10-16T10:30:55.293Z,76.65
2018-10-16T10:31:55.223Z,76.65
2018-10-16T10:32:55.180Z,75.92
2018-10-16T10:33:55.080Z,75.63
2018-10-16T10:34:55.033Z,74.48
2018-10-16T10:35:54.967Z,73.99
2018-10-16T10:36:54.867Z,73.51
2018-10-16T10:37:54.795Z,74.67
2018-10-16T10:38:54.724Z,75.73
2018-10-16T10:39:54.652Z,73.99
2018-10-16T10:40:54.581Z,73.22
2018-10-16T10:41:54.512Z,73.99
2018-10-16T10:42:54.445Z,74.19
2018-10-16T10:43:54.369Z,72.68
2018-10-16T10:44:54.299Z,72.88
2018-10-16T10:45:54.229Z,72.78
2018-10-16T10:46:54.156Z,72.39
2018-10-16T10:47:54.087Z,71.47
2018-10-16T10:48:56.637Z,70.70
2018-10-16T10:49:53.964Z,70.02
2018-10-16T10:50:54.064Z,72.24
2018-10-16T10:51:53.803Z,70.60
2018-10-16T10:52:53.733Z,70.50
2018-10-16T10:53:53.664Z,69.93
2018-10-16T10:54:53.592Z,71.47
2018-10-16T10:55:53.521Z,70.54
2018-10-16T10:56:53.604Z,69.87
2018-10-16T10:57:53.382Z,69.77
2018-10-16T10:58:53.309Z,69.09
2018-10-16T10:59:53.238Z,69.48
2018-10-16T11:00:53.168Z,68.90
2018-10-16T11:01:53.099Z,68.42
2018-10-16T11:02:53.087Z,68.52
2018-10-16T11:03:52.958Z,66.78
2018-10-16T11:04:52.891Z,66.72
2018-10-16T11:05:52.821Z,66.04
2018-10-16T11:06:52.747Z,65.59
2018-10-16T11:07:52.677Z,64.92
2018-10-16T11:08:52.652Z,64.15
2018-10-16T11:09:52.538Z,64.72
2018-10-16T11:10:52.473Z,64.24
2018-10-16T11:11:52.397Z,64.34
2018-10-16T11:12:52.331Z,65.69
2018-10-16T11:13:52.260Z,64.82
2018-10-16T11:14:52.232Z,64.92
2018-10-16T11:15:52.120Z,64.82
2018-10-16T11:16:52.050Z,66.40
2018-10-16T11:17:51.981Z,65.91
2018-10-16T11:18:51.910Z,65.53
2018-10-16T11:19:51.843Z,63.40
2018-10-16T11:20:51.781Z,63.63
2018-10-16T11:21:51.704Z,62.66
2018-10-16T11:22:51.633Z,62.37
2018-10-16T11:23:51.568Z,62.47
2018-10-16T11:24:51.496Z,61.70
2018-10-16T11:25:51.428Z,62.86
2018-10-16T11:26:51.401Z,61.92
2018-10-16T11:27:51.292Z,60.86
2018-10-16T11:28:51.223Z,60.89
2018-10-16T11:29:51.154Z,59.95
2018-10-16T11:30:51.085Z,59.47
2018-10-16T11:31:51.016Z,58.98
2018-10-16T11:32:51.175Z,59.69
2018-10-16T11:33:50.879Z,58.75
2018-10-16T11:34:50.814Z,57.66
2018-10-16T11:35:50.745Z,57.30
2018-10-16T11:36:50.734Z,56.56
2018-10-16T11:37:50.612Z,55.52
2018-10-16T11:38:50.545Z,54.31
2018-10-16T11:39:50.477Z,52.52
2018-10-16T11:40:50.411Z,51.16
2018-10-16T11:41:50.345Z,51.48
2018-10-16T11:42:50.281Z,50.14
2018-10-16T11:43:50.214Z,49.49
2018-10-16T11:44:50.199Z,50.43
2018-10-16T11:45:50.142Z,49.56
2018-10-16T11:46:50.020Z,50.14
2018-10-16T11:47:49.955Z,49.00
2018-10-16T11:48:49.890Z,48.78
2018-10-16T11:49:49.829Z,48.80
2018-10-16T11:50:49.769Z,48.73
2018-10-16T11:51:49.700Z,47.86
2018-10-16T11:52:49.638Z,47.64
2018-10-16T11:53:49.576Z,47.78
2018-10-16T12:00:49.163Z,44.71
2018-10-16T12:01:49.076Z,45.10
2018-10-16T12:02:49.013Z,44.62
2018-10-16T12:03:48.954Z,45.76
2018-10-16T12:04:48.893Z,45.32
2018-10-16T12:05:48.834Z,48.71
2018-10-16T12:07:48.718Z,43.24
2018-10-16T12:08:48.652Z,44.14
2018-10-16T12:10:48.592Z,42.94
2018-10-16T12:11:51.090Z,42.16
2018-10-16T12:12:48.411Z,43.07
2018-10-16T12:13:48.349Z,41.97
2018-10-16T12:14:48.288Z,42.73
2018-10-16T12:15:48.228Z,43.07
2018-10-16T12:16:48.184Z,42.68
2018-10-16T12:17:48.158Z,43.53
2018-10-16T12:18:48.048Z,42.80
2018-10-16T12:19:48.002Z,43.99
2018-10-16T12:20:47.930Z,45.52
2018-10-16T12:21:47.869Z,47.13
2018-10-16T12:22:47.858Z,48.54
2018-10-16T12:23:47.838Z,49.46
2018-10-16T12:24:47.692Z,50.89
2018-10-16T12:25:47.629Z,52.20
2018-10-16T12:26:47.568Z,52.78
2018-10-16T12:27:47.503Z,53.72
2018-10-16T12:28:47.597Z,55.34
2018-10-16T12:29:47.380Z,55.24
2018-10-16T12:30:47.316Z,55.92
2018-10-16T12:31:47.253Z,55.24
2018-10-16T12:32:50.476Z,56.02
2018-10-16T12:33:47.126Z,55.24
2018-10-16T12:34:47.062Z,55.15
2018-10-16T12:35:46.998Z,56.47
2018-10-16T12:36:46.934Z,56.47
2018-10-16T12:37:46.870Z,56.95
2018-10-16T12:39:34.315Z,57.24
2018-10-16T12:40:34.237Z,56.88
2018-10-16T12:41:34.170Z,56.50
2018-10-16T12:42:34.159Z,56.21
2018-10-16T12:43:34.210Z,57.08
2018-10-16T12:45:33.904Z,55.92
2018-10-16T12:46:37.469Z,55.92
2018-10-16T12:47:33.771Z,56.79
2018-10-16T12:48:33.704Z,56.40
2018-10-16T12:49:33.637Z,56.11
2018-10-16T12:51:21.066Z,56.43
2018-10-16T12:52:20.998Z,55.36
2018-10-16T12:53:20.931Z,55.07
2018-10-16T12:54:20.865Z,55.94
2018-10-16T12:55:20.801Z,55.30
2018-10-16T12:56:20.732Z,55.20
2018-10-16T12:57:20.705Z,54.84
2018-10-16T12:58:20.597Z,53.51
2018-10-16T12:59:20.532Z,52.73
2018-10-16T13:00:20.464Z,53.92
2018-10-16T13:01:20.397Z,52.15
2018-10-16T13:02:20.331Z,52.95
2018-10-16T13:03:20.265Z,52.18
2018-10-16T13:04:20.199Z,51.55
2018-10-16T13:05:20.132Z,50.29
2018-10-16T13:06:20.066Z,50.29
2018-10-16T13:07:20.001Z,50.31
2018-10-16T13:08:19.934Z,49.24
2018-10-16T13:09:19.868Z,49.82
2018-10-16T13:10:19.804Z,49.05
2018-10-16T13:11:19.740Z,49.29
2018-10-16T13:12:19.674Z,50.53
2018-10-16T13:13:19.607Z,50.53
2018-10-16T13:14:19.543Z,51.09
2018-10-16T13:15:19.478Z,52.15
2018-10-16T13:16:19.415Z,53.00
2018-10-16T13:17:19.451Z,52.12
2018-10-16T13:18:19.285Z,52.29
2018-10-16T13:19:19.217Z,53.55